Soaring Guidance
Issued by NWS Reno, NV

Home | Current Version | Previous Version | Text Only | Print | Product List | Glossary On
Versions: 1 2 3 4 5 6 7 8 9 10 11 12
077
UXUS97 KREV 051448
SRGREV

SOARING FORECAST
NATIONAL WEATHER SERVICE - RENO NV
700 AM PST MON DEC 5 2016

THIS SOARING FORECAST IS FOR THE EASTERN SIERRA AND WESTERN NEVADA
WITH SPECIFIC INDICES FOR THE GREATER RENO AREA.

THIS FORECAST IS PREPARED DAILY BY 700 AM AND IS NOT UPDATED.

FOR CURRENT FLIGHT CONDITIONS...FORECASTS...AND ADVISORIES...ACCESS
YOUR LOCAL BRIEFING OUTLET OR FLIGHT SERVICE STATION.

*******************************************************************
FORECASTED LOCAL INDICES FOR RENO:        TODAY     YESTERDAY
FORECASTED MAX TEMP AT RENO (DEG F).....     49          62
FORECASTED TRIGGER TEMPERATURE (DEG F)..     49          61
   EXCEEDED YESTERDAY BY
FORECASTED MAXIMUM ALTITUDE (FT MSL)....   8700        6900
FORECASTED SOARING INDEX (FPM)..........    291         117
FORECASTED K-INDEX.........VALID 18Z....    -12           6
FORECASTED K-INDEX.........VALID 00Z....     -3           6
FORECASTED LIFTED INDEX....VALID 18Z....      6           4
FORECASTED LIFTED INDEX....VALID 00Z....      5           6

AFTERNOON WINDS ALOFT FORECAST
MSL (FT) WIND/TEMP
9000  2824/-02
10000 2828/-04
12000 2937/-08
14000 2938/-13
16000 2940/-18
18000 2945/-23
24000 2971/-33
30000 2997/-47
34000 3099/-53
39000 3093/-54

SLIDE MOUNTAIN DATA:
     DATE       TIME     TEMP  DEWPT   RH         WIND (MPH)
                        (F)   (F)           | DIR  SPEED GUST
2016-12-05    04:20      25    -7     10    | 332   19   29
2016-12-05    04:00      25    -6     11    | 326   18   34
2016-12-05    03:50      25    -5     13    | 336   18   26
2016-12-05    03:30      25    -3     15    | 329   19   31

RENO TAF FORECAST:
KRNO 051123Z 0512/0612 35008KT P6SM SCT080 BKN150

CARSON CITY TAF FORECAST:
KCXP 051123Z 0512/0612 27009KT P6SM SCT080 BKN150
     FM051700 07008KT P6SM FEW080 BKN150
     FM060200 25007KT P6SM SCT060 BKN120

OUTLOOK FOR THE RENO-CARSON CITY-MINDEN AREA:
.TUESDAY...MOSTLY CLOUDY. SLIGHT CHANCE OF SNOW SHOWERS IN THE
MORNING, THEN CHANCE OF SNOW SHOWERS IN THE AFTERNOON. HIGHS
36 TO 41. WEST WINDS 10 TO 20 MPH WITH GUSTS UP TO 35 MPH.

SUNRISE AND SUNSET
DECEMBER  5 2016......SUNRISE   705 AM PST   SUNSET   435 PM PST
DECEMBER  6 2016......SUNRISE   706 AM PST   SUNSET   435 PM PST



USA.gov is the U.S. government's official web portal to all federal, state and local government web resources and services.